sensor_id;sensor_type;location;lat;lon;timestamp;temperature;humidity
78649;DHT22;67962;47.310;9.642;2023-07-09T00:01:41;23.30;50.80
78649;DHT22;67962;47.310;9.642;2023-07-09T00:04:10;23.20;51.20
78649;DHT22;67962;47.310;9.642;2023-07-09T00:06:36;23.20;51.60
78649;DHT22;67962;47.310;9.642;2023-07-09T00:09:01;23.20;52.10
78649;DHT22;67962;47.310;9.642;2023-07-09T00:11:27;23.10;52.20
78649;DHT22;67962;47.310;9.642;2023-07-09T00:13:53;23.00;52.60
78649;DHT22;67962;47.310;9.642;2023-07-09T00:16:26;23.00;53.00
78649;DHT22;67962;47.310;9.642;2023-07-09T00:18:52;23.00;53.20
78649;DHT22;67962;47.310;9.642;2023-07-09T00:21:18;23.00;53.40
78649;DHT22;67962;47.310;9.642;2023-07-09T00:23:46;22.90;53.90
78649;DHT22;67962;47.310;9.642;2023-07-09T00:26:15;22.90;53.50
78649;DHT22;67962;47.310;9.642;2023-07-09T00:28:42;22.90;52.90
78649;DHT22;67962;47.310;9.642;2023-07-09T00:31:15;22.90;52.90
78649;DHT22;67962;47.310;9.642;2023-07-09T00:33:42;22.80;53.30
78649;DHT22;67962;47.310;9.642;2023-07-09T00:36:28;22.80;53.40
78649;DHT22;67962;47.310;9.642;2023-07-09T00:38:55;22.70;53.50
78649;DHT22;67962;47.310;9.642;2023-07-09T00:41:25;22.70;53.60
78649;DHT22;67962;47.310;9.642;2023-07-09T00:43:52;22.70;53.30
78649;DHT22;67962;47.310;9.642;2023-07-09T00:48:56;22.80;53.30
78649;DHT22;67962;47.310;9.642;2023-07-09T00:51:26;22.80;53.50
78649;DHT22;67962;47.310;9.642;2023-07-09T00:53:55;22.80;53.50
78649;DHT22;67962;47.310;9.642;2023-07-09T00:56:35;22.80;54.60
78649;DHT22;67962;47.310;9.642;2023-07-09T00:59:06;22.60;54.30
78649;DHT22;67962;47.310;9.642;2023-07-09T01:01:34;22.50;54.00
78649;DHT22;67962;47.310;9.642;2023-07-09T01:04:02;22.50;53.70
78649;DHT22;67962;47.310;9.642;2023-07-09T01:06:53;22.50;53.90
78649;DHT22;67962;47.310;9.642;2023-07-09T01:09:18;22.50;53.80
78649;DHT22;67962;47.310;9.642;2023-07-09T01:11:44;22.50;53.40
78649;DHT22;67962;47.310;9.642;2023-07-09T01:14:12;22.50;53.10
78649;DHT22;67962;47.310;9.642;2023-07-09T01:16:45;22.50;53.10
78649;DHT22;67962;47.310;9.642;2023-07-09T01:19:13;22.50;53.20
78649;DHT22;67962;47.310;9.642;2023-07-09T01:21:39;22.50;53.50
78649;DHT22;67962;47.310;9.642;2023-07-09T01:24:45;22.50;53.80
78649;DHT22;67962;47.310;9.642;2023-07-09T01:27:02;22.50;53.80
78649;DHT22;67962;47.310;9.642;2023-07-09T01:29:33;22.40;54.40
78649;DHT22;67962;47.310;9.642;2023-07-09T01:31:59;22.30;55.10
78649;DHT22;67962;47.310;9.642;2023-07-09T01:34:25;22.30;55.20
78649;DHT22;67962;47.310;9.642;2023-07-09T01:41:44;22.10;55.40
78649;DHT22;67962;47.310;9.642;2023-07-09T01:44:09;22.10;55.20
78649;DHT22;67962;47.310;9.642;2023-07-09T01:46:35;22.20;55.10
78649;DHT22;67962;47.310;9.642;2023-07-09T01:51:29;22.10;55.60
78649;DHT22;67962;47.310;9.642;2023-07-09T01:56:20;22.20;55.20
78649;DHT22;67962;47.310;9.642;2023-07-09T01:58:46;22.20;54.80
78649;DHT22;67962;47.310;9.642;2023-07-09T02:01:13;22.20;55.20
78649;DHT22;67962;47.310;9.642;2023-07-09T02:03:38;22.20;55.50
78649;DHT22;67962;47.310;9.642;2023-07-09T02:06:05;22.20;55.00
78649;DHT22;67962;47.310;9.642;2023-07-09T02:08:31;22.10;55.10
78649;DHT22;67962;47.310;9.642;2023-07-09T02:13:25;22.10;55.40
78649;DHT22;67962;47.310;9.642;2023-07-09T02:15:50;22.10;55.50
78649;DHT22;67962;47.310;9.642;2023-07-09T02:18:16;22.10;55.70
78649;DHT22;67962;47.310;9.642;2023-07-09T02:20:46;22.00;56.60
78649;DHT22;67962;47.310;9.642;2023-07-09T02:23:11;21.80;57.00
78649;DHT22;67962;47.310;9.642;2023-07-09T02:25:37;21.80;57.30
78649;DHT22;67962;47.310;9.642;2023-07-09T02:35:21;21.70;56.40
78649;DHT22;67962;47.310;9.642;2023-07-09T02:37:47;21.80;56.30
78649;DHT22;67962;47.310;9.642;2023-07-09T02:40:14;21.80;56.10
78649;DHT22;67962;47.310;9.642;2023-07-09T02:42:40;21.80;56.20
78649;DHT22;67962;47.310;9.642;2023-07-09T02:45:06;21.80;56.70
78649;DHT22;67962;47.310;9.642;2023-07-09T02:49:58;21.70;57.50
78649;DHT22;67962;47.310;9.642;2023-07-09T02:52:23;21.70;57.20
78649;DHT22;67962;47.310;9.642;2023-07-09T02:57:15;21.40;58.10
78649;DHT22;67962;47.310;9.642;2023-07-09T03:02:06;21.30;58.50
78649;DHT22;67962;47.310;9.642;2023-07-09T03:04:31;21.30;58.80
78649;DHT22;67962;47.310;9.642;2023-07-09T03:10:45;21.40;58.60
78649;DHT22;67962;47.310;9.642;2023-07-09T03:13:10;21.30;58.90
78649;DHT22;67962;47.310;9.642;2023-07-09T03:15:36;21.40;59.00
78649;DHT22;67962;47.310;9.642;2023-07-09T03:22:55;21.20;58.80
78649;DHT22;67962;47.310;9.642;2023-07-09T03:25:20;21.20;58.80
78649;DHT22;67962;47.310;9.642;2023-07-09T03:30:14;21.30;58.30
78649;DHT22;67962;47.310;9.642;2023-07-09T03:32:41;21.30;58.30
78649;DHT22;67962;47.310;9.642;2023-07-09T03:35:07;21.40;58.20
78649;DHT22;67962;47.310;9.642;2023-07-09T03:40:03;21.40;58.20
78649;DHT22;67962;47.310;9.642;2023-07-09T03:42:29;21.40;57.90
78649;DHT22;67962;47.310;9.642;2023-07-09T03:47:20;21.40;58.30
78649;DHT22;67962;47.310;9.642;2023-07-09T03:57:06;21.40;58.90
78649;DHT22;67962;47.310;9.642;2023-07-09T03:59:33;21.30;58.80
78649;DHT22;67962;47.310;9.642;2023-07-09T04:01:59;21.20;58.90
78649;DHT22;67962;47.310;9.642;2023-07-09T04:04:26;21.20;59.30
78649;DHT22;67962;47.310;9.642;2023-07-09T04:09:18;21.20;59.10
78649;DHT22;67962;47.310;9.642;2023-07-09T04:11:43;21.30;59.00
78649;DHT22;67962;47.310;9.642;2023-07-09T04:16:36;21.40;58.70
78649;DHT22;67962;47.310;9.642;2023-07-09T04:19:02;21.50;58.10
78649;DHT22;67962;47.310;9.642;2023-07-09T04:23:53;21.50;57.70
78649;DHT22;67962;47.310;9.642;2023-07-09T04:26:19;21.50;57.90
78649;DHT22;67962;47.310;9.642;2023-07-09T04:28:44;21.50;57.90
78649;DHT22;67962;47.310;9.642;2023-07-09T04:33:38;21.40;58.60
78649;DHT22;67962;47.310;9.642;2023-07-09T04:36:04;21.30;59.40
78649;DHT22;67962;47.310;9.642;2023-07-09T04:38:32;21.40;60.10
78649;DHT22;67962;47.310;9.642;2023-07-09T04:40:57;21.40;60.90
78649;DHT22;67962;47.310;9.642;2023-07-09T04:43:23;21.30;59.80
78649;DHT22;67962;47.310;9.642;2023-07-09T04:48:14;21.40;59.70
78649;DHT22;67962;47.310;9.642;2023-07-09T04:53:07;21.60;58.60
78649;DHT22;67962;47.310;9.642;2023-07-09T04:55:32;21.60;58.30
78649;DHT22;67962;47.310;9.642;2023-07-09T05:00:24;21.80;58.30
78649;DHT22;67962;47.310;9.642;2023-07-09T05:03:12;21.90;58.60
78649;DHT22;67962;47.310;9.642;2023-07-09T05:08:10;22.20;58.90
78649;DHT22;67962;47.310;9.642;2023-07-09T05:10:41;22.70;59.00
78649;DHT22;67962;47.310;9.642;2023-07-09T05:13:07;23.30;57.80
78649;DHT22;67962;47.310;9.642;2023-07-09T05:15:32;24.00;55.50
78649;DHT22;67962;47.310;9.642;2023-07-09T05:17:58;24.60;53.90
78649;DHT22;67962;47.310;9.642;2023-07-09T05:20:24;25.00;51.40
78649;DHT22;67962;47.310;9.642;2023-07-09T05:22:50;25.40;51.10
78649;DHT22;67962;47.310;9.642;2023-07-09T05:25:16;25.80;50.20
78649;DHT22;67962;47.310;9.642;2023-07-09T05:27:42;26.20;48.80
78649;DHT22;67962;47.310;9.642;2023-07-09T05:30:08;26.60;48.10
78649;DHT22;67962;47.310;9.642;2023-07-09T05:32:36;26.90;47.90
78649;DHT22;67962;47.310;9.642;2023-07-09T05:37:27;27.30;48.20
78649;DHT22;67962;47.310;9.642;2023-07-09T05:39:53;27.40;47.60
78649;DHT22;67962;47.310;9.642;2023-07-09T05:42:18;27.50;47.60
78649;DHT22;67962;47.310;9.642;2023-07-09T05:44:44;27.50;47.40
78649;DHT22;67962;47.310;9.642;2023-07-09T05:49:38;28.00;45.10
78649;DHT22;67962;47.310;9.642;2023-07-09T05:54:34;28.50;43.50
78649;DHT22;67962;47.310;9.642;2023-07-09T05:59:36;28.80;41.50
78649;DHT22;67962;47.310;9.642;2023-07-09T06:02:02;29.40;39.70
78649;DHT22;67962;47.310;9.642;2023-07-09T06:06:56;29.80;38.20
78649;DHT22;67962;47.310;9.642;2023-07-09T06:11:47;30.00;38.80
78649;DHT22;67962;47.310;9.642;2023-07-09T06:14:13;30.20;37.00
78649;DHT22;67962;47.310;9.642;2023-07-09T06:16:38;30.20;37.00
78649;DHT22;67962;47.310;9.642;2023-07-09T06:21:30;30.20;36.10
78649;DHT22;67962;47.310;9.642;2023-07-09T06:23:55;30.20;36.30
78649;DHT22;67962;47.310;9.642;2023-07-09T06:26:21;30.40;36.20
78649;DHT22;67962;47.310;9.642;2023-07-09T06:31:12;30.40;35.80
78649;DHT22;67962;47.310;9.642;2023-07-09T06:38:31;30.40;36.70
78649;DHT22;67962;47.310;9.642;2023-07-09T06:43:24;30.80;34.30
78649;DHT22;67962;47.310;9.642;2023-07-09T06:45:58;30.80;34.20
78649;DHT22;67962;47.310;9.642;2023-07-09T06:48:24;31.00;34.40
78649;DHT22;67962;47.310;9.642;2023-07-09T06:53:20;31.10;35.20
78649;DHT22;67962;47.310;9.642;2023-07-09T06:55:46;31.20;34.00
78649;DHT22;67962;47.310;9.642;2023-07-09T07:03:04;31.30;34.70
78649;DHT22;67962;47.310;9.642;2023-07-09T07:05:31;31.40;35.20
78649;DHT22;67962;47.310;9.642;2023-07-09T07:10:22;31.50;34.70
78649;DHT22;67962;47.310;9.642;2023-07-09T07:12:48;31.70;36.50
78649;DHT22;67962;47.310;9.642;2023-07-09T07:15:16;31.80;34.00
78649;DHT22;67962;47.310;9.642;2023-07-09T07:17:42;31.80;34.20
78649;DHT22;67962;47.310;9.642;2023-07-09T07:20:10;32.00;33.70
78649;DHT22;67962;47.310;9.642;2023-07-09T07:27:32;32.40;33.50
78649;DHT22;67962;47.310;9.642;2023-07-09T07:29:58;32.50;34.20
78649;DHT22;67962;47.310;9.642;2023-07-09T07:32:24;32.70;33.40
78649;DHT22;67962;47.310;9.642;2023-07-09T07:37:17;33.20;31.70
78649;DHT22;67962;47.310;9.642;2023-07-09T07:39:43;33.50;30.40
78649;DHT22;67962;47.310;9.642;2023-07-09T07:42:09;33.70;30.20
78649;DHT22;67962;47.310;9.642;2023-07-09T07:44:35;34.00;29.80
78649;DHT22;67962;47.310;9.642;2023-07-09T07:49:26;34.00;30.40
78649;DHT22;67962;47.310;9.642;2023-07-09T07:51:52;34.20;29.50
78649;DHT22;67962;47.310;9.642;2023-07-09T07:54:18;34.50;28.90
78649;DHT22;67962;47.310;9.642;2023-07-09T07:56:44;34.70;29.00
78649;DHT22;67962;47.310;9.642;2023-07-09T07:59:10;34.90;29.00
78649;DHT22;67962;47.310;9.642;2023-07-09T08:01:35;34.90;28.50
78649;DHT22;67962;47.310;9.642;2023-07-09T08:04:02;34.90;27.80
78649;DHT22;67962;47.310;9.642;2023-07-09T08:06:28;34.90;28.20
78649;DHT22;67962;47.310;9.642;2023-07-09T08:11:21;34.90;28.30
78649;DHT22;67962;47.310;9.642;2023-07-09T08:16:12;35.20;28.00
78649;DHT22;67962;47.310;9.642;2023-07-09T08:22:12;35.50;27.30
78649;DHT22;67962;47.310;9.642;2023-07-09T08:24:38;35.50;27.00
78649;DHT22;67962;47.310;9.642;2023-07-09T08:27:06;35.50;27.30
78649;DHT22;67962;47.310;9.642;2023-07-09T08:31:57;35.80;27.20
78649;DHT22;67962;47.310;9.642;2023-07-09T08:34:23;35.90;27.30
78649;DHT22;67962;47.310;9.642;2023-07-09T08:53:59;36.70;25.00
78649;DHT22;67962;47.310;9.642;2023-07-09T08:58:53;37.00;26.10
78649;DHT22;67962;47.310;9.642;2023-07-09T09:03:53;37.00;24.90
78649;DHT22;67962;47.310;9.642;2023-07-09T09:06:22;37.10;25.50
78649;DHT22;67962;47.310;9.642;2023-07-09T09:13:46;37.10;25.80
78649;DHT22;67962;47.310;9.642;2023-07-09T09:26:02;38.40;24.40
78649;DHT22;67962;47.310;9.642;2023-07-09T09:31:11;38.60;24.20
78649;DHT22;67962;47.310;9.642;2023-07-09T09:33:41;38.70;24.50
78649;DHT22;67962;47.310;9.642;2023-07-09T09:38:38;38.80;23.70
78649;DHT22;67962;47.310;9.642;2023-07-09T09:43:32;39.10;23.80
78649;DHT22;67962;47.310;9.642;2023-07-09T09:45:59;39.20;23.80
78649;DHT22;67962;47.310;9.642;2023-07-09T09:48:29;39.10;24.20
78649;DHT22;67962;47.310;9.642;2023-07-09T09:55:47;38.90;24.30
78649;DHT22;67962;47.310;9.642;2023-07-09T09:58:16;38.70;23.30
78649;DHT22;67962;47.310;9.642;2023-07-09T10:00:50;38.30;23.50
78649;DHT22;67962;47.310;9.642;2023-07-09T10:03:16;38.20;24.10
78649;DHT22;67962;47.310;9.642;2023-07-09T10:10:34;38.00;24.80
78649;DHT22;67962;47.310;9.642;2023-07-09T10:35:30;37.30;24.40
78649;DHT22;67962;47.310;9.642;2023-07-09T10:46:05;37.50;23.90
78649;DHT22;67962;47.310;9.642;2023-07-09T10:51:00;37.70;24.00
78649;DHT22;67962;47.310;9.642;2023-07-09T10:58:33;37.70;21.70
78649;DHT22;67962;47.310;9.642;2023-07-09T11:01:01;37.60;22.90
78649;DHT22;67962;47.310;9.642;2023-07-09T11:06:00;37.80;22.40
78649;DHT22;67962;47.310;9.642;2023-07-09T11:09:51;37.90;22.20
78649;DHT22;67962;47.310;9.642;2023-07-09T11:14:49;38.40;22.80
78649;DHT22;67962;47.310;9.642;2023-07-09T11:17:19;38.30;23.20
78649;DHT22;67962;47.310;9.642;2023-07-09T11:19:53;38.10;22.50
78649;DHT22;67962;47.310;9.642;2023-07-09T11:32:09;37.90;23.70
78649;DHT22;67962;47.310;9.642;2023-07-09T11:37:11;38.10;24.50
78649;DHT22;67962;47.310;9.642;2023-07-09T11:42:22;38.40;24.10
78649;DHT22;67962;47.310;9.642;2023-07-09T11:44:32;38.40;23.70
78649;DHT22;67962;47.310;9.642;2023-07-09T11:47:08;38.40;24.50
78649;DHT22;67962;47.310;9.642;2023-07-09T11:51:59;37.90;24.10
78649;DHT22;67962;47.310;9.642;2023-07-09T11:54:25;37.70;24.30
78649;DHT22;67962;47.310;9.642;2023-07-09T11:56:59;37.60;23.70
78649;DHT22;67962;47.310;9.642;2023-07-09T11:59:24;37.70;23.40
78649;DHT22;67962;47.310;9.642;2023-07-09T12:04:19;37.40;24.30
78649;DHT22;67962;47.310;9.642;2023-07-09T12:06:46;37.50;23.90
78649;DHT22;67962;47.310;9.642;2023-07-09T12:16:40;37.30;23.10
78649;DHT22;67962;47.310;9.642;2023-07-09T12:19:07;37.40;23.60
78649;DHT22;67962;47.310;9.642;2023-07-09T12:21:38;37.30;23.30
78649;DHT22;67962;47.310;9.642;2023-07-09T12:26:31;37.20;23.70
78649;DHT22;67962;47.310;9.642;2023-07-09T12:28:58;37.20;24.20
78649;DHT22;67962;47.310;9.642;2023-07-09T12:31:29;37.30;24.20
78649;DHT22;67962;47.310;9.642;2023-07-09T12:33:56;37.30;22.70
78649;DHT22;67962;47.310;9.642;2023-07-09T12:36:24;37.30;22.70
78649;DHT22;67962;47.310;9.642;2023-07-09T12:43:45;37.70;23.20
78649;DHT22;67962;47.310;9.642;2023-07-09T12:46:12;37.70;23.50
78649;DHT22;67962;47.310;9.642;2023-07-09T12:53:31;37.20;22.20
78649;DHT22;67962;47.310;9.642;2023-07-09T12:55:58;37.20;22.70
78649;DHT22;67962;47.310;9.642;2023-07-09T13:08:26;36.70;23.30
78649;DHT22;67962;47.310;9.642;2023-07-09T13:10:52;36.70;22.80
78649;DHT22;67962;47.310;9.642;2023-07-09T13:18:13;36.50;22.40
78649;DHT22;67962;47.310;9.642;2023-07-09T13:20:42;36.50;23.10
78649;DHT22;67962;47.310;9.642;2023-07-09T13:25:40;36.40;22.80
78649;DHT22;67962;47.310;9.642;2023-07-09T13:30:36;36.20;22.20
78649;DHT22;67962;47.310;9.642;2023-07-09T13:33:04;36.20;23.10
78649;DHT22;67962;47.310;9.642;2023-07-09T13:35:30;36.40;22.50
78649;DHT22;67962;47.310;9.642;2023-07-09T13:40:21;36.50;22.80
78649;DHT22;67962;47.310;9.642;2023-07-09T13:42:47;36.60;23.80
78649;DHT22;67962;47.310;9.642;2023-07-09T13:47:39;36.30;21.40
78649;DHT22;67962;47.310;9.642;2023-07-09T13:50:05;36.20;22.40
78649;DHT22;67962;47.310;9.642;2023-07-09T13:57:23;36.30;21.70
78649;DHT22;67962;47.310;9.642;2023-07-09T13:59:49;36.30;21.40
78649;DHT22;67962;47.310;9.642;2023-07-09T14:04:41;36.20;21.80
78649;DHT22;67962;47.310;9.642;2023-07-09T14:12:02;36.00;20.20
78649;DHT22;67962;47.310;9.642;2023-07-09T14:17:03;36.00;20.20
78649;DHT22;67962;47.310;9.642;2023-07-09T14:19:29;35.80;20.00
78649;DHT22;67962;47.310;9.642;2023-07-09T14:21:54;35.80;20.20
78649;DHT22;67962;47.310;9.642;2023-07-09T14:24:26;35.70;20.40
78649;DHT22;67962;47.310;9.642;2023-07-09T14:26:54;35.70;20.40
78649;DHT22;67962;47.310;9.642;2023-07-09T14:31:49;36.00;19.70
78649;DHT22;67962;47.310;9.642;2023-07-09T14:36:47;35.90;20.40
78649;DHT22;67962;47.310;9.642;2023-07-09T14:39:13;36.10;19.30
78649;DHT22;67962;47.310;9.642;2023-07-09T14:41:40;36.10;20.60
78649;DHT22;67962;47.310;9.642;2023-07-09T14:46:38;36.10;17.70
78649;DHT22;67962;47.310;9.642;2023-07-09T14:49:03;36.10;19.10
78649;DHT22;67962;47.310;9.642;2023-07-09T14:53:55;36.10;18.00
78649;DHT22;67962;47.310;9.642;2023-07-09T14:58:46;36.10;17.40
78649;DHT22;67962;47.310;9.642;2023-07-09T15:01:15;36.10;18.60
78649;DHT22;67962;47.310;9.642;2023-07-09T15:03:40;36.00;17.70
78649;DHT22;67962;47.310;9.642;2023-07-09T15:06:06;36.00;18.70
78649;DHT22;67962;47.310;9.642;2023-07-09T15:10:57;35.90;18.20
78649;DHT22;67962;47.310;9.642;2023-07-09T15:18:18;35.80;19.40
78649;DHT22;67962;47.310;9.642;2023-07-09T15:23:09;35.70;20.10
78649;DHT22;67962;47.310;9.642;2023-07-09T15:25:36;35.80;20.30
78649;DHT22;67962;47.310;9.642;2023-07-09T15:28:02;35.80;20.20
78649;DHT22;67962;47.310;9.642;2023-07-09T15:30:29;35.80;20.10
78649;DHT22;67962;47.310;9.642;2023-07-09T15:37:50;35.90;20.80
78649;DHT22;67962;47.310;9.642;2023-07-09T15:47:38;36.10;20.80
78649;DHT22;67962;47.310;9.642;2023-07-09T15:54:59;36.20;21.70
78649;DHT22;67962;47.310;9.642;2023-07-09T15:59:52;35.90;20.30
78649;DHT22;67962;47.310;9.642;2023-07-09T16:02:18;35.70;19.00
78649;DHT22;67962;47.310;9.642;2023-07-09T16:07:12;35.40;20.90
78649;DHT22;67962;47.310;9.642;2023-07-09T16:09:39;35.30;18.60
78649;DHT22;67962;47.310;9.642;2023-07-09T16:12:04;35.30;20.10
78649;DHT22;67962;47.310;9.642;2023-07-09T16:14:32;35.10;19.00
78649;DHT22;67962;47.310;9.642;2023-07-09T16:17:00;35.00;19.60
78649;DHT22;67962;47.310;9.642;2023-07-09T16:19:28;34.90;19.90
78649;DHT22;67962;47.310;9.642;2023-07-09T16:24:27;34.90;19.50
78649;DHT22;67962;47.310;9.642;2023-07-09T16:26:54;34.70;19.20
78649;DHT22;67962;47.310;9.642;2023-07-09T16:31:46;34.60;20.20
78649;DHT22;67962;47.310;9.642;2023-07-09T16:34:11;34.50;20.60
78649;DHT22;67962;47.310;9.642;2023-07-09T16:36:37;34.50;20.60
78649;DHT22;67962;47.310;9.642;2023-07-09T16:41:37;34.40;19.60
78649;DHT22;67962;47.310;9.642;2023-07-09T16:46:29;34.30;20.80
78649;DHT22;67962;47.310;9.642;2023-07-09T16:50:27;34.20;19.60
78649;DHT22;67962;47.310;9.642;2023-07-09T16:52:53;34.10;20.50
78649;DHT22;67962;47.310;9.642;2023-07-09T17:02:41;33.90;20.90
78649;DHT22;67962;47.310;9.642;2023-07-09T17:05:07;33.90;20.40
78649;DHT22;67962;47.310;9.642;2023-07-09T17:07:33;33.80;21.10
78649;DHT22;67962;47.310;9.642;2023-07-09T17:10:00;33.80;20.90
78649;DHT22;67962;47.310;9.642;2023-07-09T17:12:27;33.70;21.80
78649;DHT22;67962;47.310;9.642;2023-07-09T17:14:53;33.70;21.50
78649;DHT22;67962;47.310;9.642;2023-07-09T17:17:23;33.60;23.10
78649;DHT22;67962;47.310;9.642;2023-07-09T17:27:13;33.30;24.00
78649;DHT22;67962;47.310;9.642;2023-07-09T17:29:40;33.20;24.20
78649;DHT22;67962;47.310;9.642;2023-07-09T17:32:07;33.10;23.80
78649;DHT22;67962;47.310;9.642;2023-07-09T17:34:33;33.00;24.40
78649;DHT22;67962;47.310;9.642;2023-07-09T17:36:59;32.90;25.10
78649;DHT22;67962;47.310;9.642;2023-07-09T17:39:26;32.80;24.20
78649;DHT22;67962;47.310;9.642;2023-07-09T17:41:52;32.70;24.00
78649;DHT22;67962;47.310;9.642;2023-07-09T17:44:22;32.60;23.00
78649;DHT22;67962;47.310;9.642;2023-07-09T17:46:50;32.60;22.70
78649;DHT22;67962;47.310;9.642;2023-07-09T17:49:24;32.50;24.20
78649;DHT22;67962;47.310;9.642;2023-07-09T17:51:51;32.40;24.80
78649;DHT22;67962;47.310;9.642;2023-07-09T17:54:21;32.30;23.40
78649;DHT22;67962;47.310;9.642;2023-07-09T17:56:48;32.30;23.40
78649;DHT22;67962;47.310;9.642;2023-07-09T17:59:17;32.20;23.40
78649;DHT22;67962;47.310;9.642;2023-07-09T18:04:43;32.10;24.70
78649;DHT22;67962;47.310;9.642;2023-07-09T18:07:21;32.00;23.90
78649;DHT22;67962;47.310;9.642;2023-07-09T18:09:48;32.00;24.40
78649;DHT22;67962;47.310;9.642;2023-07-09T18:12:17;31.90;24.60
78649;DHT22;67962;47.310;9.642;2023-07-09T18:14:46;31.80;24.40
78649;DHT22;67962;47.310;9.642;2023-07-09T18:17:15;31.70;24.80
78649;DHT22;67962;47.310;9.642;2023-07-09T18:19:42;31.70;24.90
78649;DHT22;67962;47.310;9.642;2023-07-09T18:22:22;31.60;24.70
78649;DHT22;67962;47.310;9.642;2023-07-09T18:24:49;31.50;26.40
78649;DHT22;67962;47.310;9.642;2023-07-09T18:27:27;31.50;27.60
78649;DHT22;67962;47.310;9.642;2023-07-09T18:29:54;31.50;26.30
78649;DHT22;67962;47.310;9.642;2023-07-09T18:32:24;31.40;26.40
78649;DHT22;67962;47.310;9.642;2023-07-09T18:34:55;31.40;26.70
78649;DHT22;67962;47.310;9.642;2023-07-09T18:37:22;31.30;27.20
78649;DHT22;67962;47.310;9.642;2023-07-09T18:39:48;31.10;28.00
78649;DHT22;67962;47.310;9.642;2023-07-09T18:42:20;31.00;27.90
78649;DHT22;67962;47.310;9.642;2023-07-09T18:44:47;30.80;28.20
78649;DHT22;67962;47.310;9.642;2023-07-09T18:47:16;30.70;28.90
78649;DHT22;67962;47.310;9.642;2023-07-09T18:49:43;30.60;28.80
78649;DHT22;67962;47.310;9.642;2023-07-09T18:52:18;30.50;28.40
78649;DHT22;67962;47.310;9.642;2023-07-09T18:54:46;30.50;27.80
78649;DHT22;67962;47.310;9.642;2023-07-09T18:57:13;30.40;27.40
78649;DHT22;67962;47.310;9.642;2023-07-09T18:59:39;30.30;27.60
78649;DHT22;67962;47.310;9.642;2023-07-09T19:02:32;30.20;28.00
78649;DHT22;67962;47.310;9.642;2023-07-09T19:04:57;30.20;29.00
78649;DHT22;67962;47.310;9.642;2023-07-09T19:07:23;30.00;29.30
78649;DHT22;67962;47.310;9.642;2023-07-09T19:09:49;29.90;29.50
78649;DHT22;67962;47.310;9.642;2023-07-09T19:12:15;29.80;29.30
78649;DHT22;67962;47.310;9.642;2023-07-09T19:14:41;29.70;29.10
78649;DHT22;67962;47.310;9.642;2023-07-09T19:17:17;29.70;29.30
78649;DHT22;67962;47.310;9.642;2023-07-09T19:19:46;29.70;28.70
78649;DHT22;67962;47.310;9.642;2023-07-09T19:22:14;29.60;28.50
78649;DHT22;67962;47.310;9.642;2023-07-09T19:24:42;29.60;28.50
78649;DHT22;67962;47.310;9.642;2023-07-09T19:27:08;29.60;28.50
78649;DHT22;67962;47.310;9.642;2023-07-09T19:29:34;29.60;28.80
78649;DHT22;67962;47.310;9.642;2023-07-09T19:32:05;29.50;29.20
78649;DHT22;67962;47.310;9.642;2023-07-09T19:34:35;29.40;29.80
78649;DHT22;67962;47.310;9.642;2023-07-09T19:37:03;29.20;30.60
78649;DHT22;67962;47.310;9.642;2023-07-09T19:39:38;28.90;30.30
78649;DHT22;67962;47.310;9.642;2023-07-09T19:42:17;28.70;30.10
78649;DHT22;67962;47.310;9.642;2023-07-09T19:44:43;28.70;30.00
78649;DHT22;67962;47.310;9.642;2023-07-09T19:47:23;28.70;30.10
78649;DHT22;67962;47.310;9.642;2023-07-09T19:49:54;28.60;29.70
78649;DHT22;67962;47.310;9.642;2023-07-09T19:52:21;28.60;30.10
78649;DHT22;67962;47.310;9.642;2023-07-09T19:54:47;28.60;30.10
78649;DHT22;67962;47.310;9.642;2023-07-09T19:57:15;28.40;30.70
78649;DHT22;67962;47.310;9.642;2023-07-09T19:59:42;28.30;32.20
78649;DHT22;67962;47.310;9.642;2023-07-09T20:04:43;28.20;32.20
78649;DHT22;67962;47.310;9.642;2023-07-09T20:07:10;28.10;31.70
78649;DHT22;67962;47.310;9.642;2023-07-09T20:09:36;28.00;32.40
78649;DHT22;67962;47.310;9.642;2023-07-09T20:12:02;27.90;34.50
78649;DHT22;67962;47.310;9.642;2023-07-09T20:14:29;27.60;34.00
78649;DHT22;67962;47.310;9.642;2023-07-09T20:16:55;27.40;34.60
78649;DHT22;67962;47.310;9.642;2023-07-09T20:19:20;27.40;35.10
78649;DHT22;67962;47.310;9.642;2023-07-09T20:21:47;27.30;35.60
78649;DHT22;67962;47.310;9.642;2023-07-09T20:24:20;27.30;35.90
78649;DHT22;67962;47.310;9.642;2023-07-09T20:26:46;27.30;35.60
78649;DHT22;67962;47.310;9.642;2023-07-09T20:29:14;27.20;34.40
78649;DHT22;67962;47.310;9.642;2023-07-09T20:31:42;27.10;35.20
78649;DHT22;67962;47.310;9.642;2023-07-09T20:34:21;27.10;36.70
78649;DHT22;67962;47.310;9.642;2023-07-09T20:36:51;27.00;35.80
78649;DHT22;67962;47.310;9.642;2023-07-09T20:39:23;26.80;35.90
78649;DHT22;67962;47.310;9.642;2023-07-09T20:41:51;26.70;37.40
78649;DHT22;67962;47.310;9.642;2023-07-09T20:44:21;26.70;37.80
78649;DHT22;67962;47.310;9.642;2023-07-09T20:46:49;26.60;36.90
78649;DHT22;67962;47.310;9.642;2023-07-09T20:49:25;26.50;36.60
78649;DHT22;67962;47.310;9.642;2023-07-09T20:51:52;26.40;36.80
78649;DHT22;67962;47.310;9.642;2023-07-09T20:54:18;26.40;36.60
78649;DHT22;67962;47.310;9.642;2023-07-09T20:56:44;26.40;36.30
78649;DHT22;67962;47.310;9.642;2023-07-09T20:59:15;26.40;36.40
78649;DHT22;67962;47.310;9.642;2023-07-09T21:01:42;26.50;36.70
78649;DHT22;67962;47.310;9.642;2023-07-09T21:04:12;26.60;36.80
78649;DHT22;67962;47.310;9.642;2023-07-09T21:06:39;26.50;36.70
78649;DHT22;67962;47.310;9.642;2023-07-09T21:09:20;26.40;38.20
78649;DHT22;67962;47.310;9.642;2023-07-09T21:11:48;26.30;38.50
78649;DHT22;67962;47.310;9.642;2023-07-09T21:14:17;26.30;38.80
78649;DHT22;67962;47.310;9.642;2023-07-09T21:16:44;26.10;39.70
78649;DHT22;67962;47.310;9.642;2023-07-09T21:19:27;26.00;39.80
78649;DHT22;67962;47.310;9.642;2023-07-09T21:21:54;26.00;40.10
78649;DHT22;67962;47.310;9.642;2023-07-09T21:24:27;26.00;39.80
78649;DHT22;67962;47.310;9.642;2023-07-09T21:26:54;25.90;40.00
78649;DHT22;67962;47.310;9.642;2023-07-09T21:29:23;25.80;39.60
78649;DHT22;67962;47.310;9.642;2023-07-09T21:31:50;25.80;40.60
78649;DHT22;67962;47.310;9.642;2023-07-09T21:34:19;25.80;41.10
78649;DHT22;67962;47.310;9.642;2023-07-09T21:36:51;25.80;40.60
78649;DHT22;67962;47.310;9.642;2023-07-09T21:39:19;25.70;40.20
78649;DHT22;67962;47.310;9.642;2023-07-09T21:41:46;25.70;40.70
78649;DHT22;67962;47.310;9.642;2023-07-09T21:44:13;25.60;40.10
78649;DHT22;67962;47.310;9.642;2023-07-09T21:46:41;25.60;41.00
78649;DHT22;67962;47.310;9.642;2023-07-09T21:49:19;25.60;41.30
78649;DHT22;67962;47.310;9.642;2023-07-09T21:51:45;25.60;42.30
78649;DHT22;67962;47.310;9.642;2023-07-09T21:54:34;25.60;41.20
78649;DHT22;67962;47.310;9.642;2023-07-09T21:57:01;25.50;41.60